Time;durP1;ratioP1;P1;durP2;ratioP2;P2;SDS_P1;SDS_P2;PMS_P1;PMS_P2;Temp;Humidity;BMP_temperature;BMP_pressure;BME280_temperature;BME280_humidity;BME280_pressure;Samples;Min_cycle;Max_cycle;Signal;HPM_P1;HPM_P2
2022/06/15 00:01:02;;;;;;;6.90;4.40;;;12.00;99.90;;;;;;5086046;28;20047;-76
2022/06/15 00:03:32;;;;;;;5.80;3.80;;;12.00;99.90;;;;;;5097683;28;20036;-76
2022/06/15 00:06:06;;;;;;;7.77;4.07;;;12.00;99.90;;;;;;5105820;28;20497;-76
2022/06/15 00:08:32;;;;;;;8.50;5.10;;;11.90;99.90;;;;;;5107939;28;20417;-77
2022/06/15 00:11:04;;;;;;;10.43;5.60;;;11.90;99.90;;;;;;5083081;28;20043;-76
2022/06/15 00:13:30;;;;;;;6.77;4.60;;;11.90;99.90;;;;;;5102180;28;20046;-76
2022/06/15 00:15:55;;;;;;;9.20;4.43;;;11.90;99.90;;;;;;5100775;28;20048;-76
2022/06/15 00:18:21;;;;;;;9.67;5.17;;;11.90;99.90;;;;;;5082320;28;20063;-76
2022/06/15 00:20:48;;;;;;;7.40;4.30;;;11.80;99.90;;;;;;5100533;28;20128;-76
2022/06/15 00:23:14;;;;;;;6.13;4.80;;;11.80;99.90;;;;;;5103209;28;20039;-76
2022/06/15 00:25:40;;;;;;;7.67;4.70;;;11.80;99.90;;;;;;5086492;28;20065;-77
2022/06/15 00:28:05;;;;;;;7.50;4.57;;;11.70;99.90;;;;;;5100027;28;20511;-77
2022/06/15 00:30:31;;;;;;;6.40;4.30;;;11.70;99.90;;;;;;5073418;28;20546;-76
2022/06/15 00:32:57;;;;;;;9.33;4.27;;;11.70;99.90;;;;;;5082215;28;20101;-77
2022/06/15 00:35:23;;;;;;;6.70;5.07;;;11.70;99.90;;;;;;5068964;28;20051;-77
2022/06/15 00:37:50;;;;;;;9.20;5.00;;;11.60;99.90;;;;;;5084620;28;20520;-77
2022/06/15 00:40:15;;;;;;;9.27;5.40;;;11.60;99.90;;;;;;5066375;28;20044;-76
2022/06/15 00:42:41;;;;;;;8.97;4.60;;;11.60;99.90;;;;;;5086177;28;20054;-76
2022/06/15 00:45:08;;;;;;;9.13;5.10;;;11.50;99.90;;;;;;5067175;28;20043;-76
2022/06/15 00:47:39;;;;;;;7.67;4.97;;;11.50;99.90;;;;;;5089480;28;20408;-76
2022/06/15 00:50:07;;;;;;;8.27;4.50;;;11.50;99.90;;;;;;5083278;28;20574;-76
2022/06/15 00:52:40;;;;;;;7.37;4.73;;;11.40;99.90;;;;;;5078211;28;20050;-76
2022/06/15 00:55:12;;;;;;;8.47;4.70;;;11.40;99.90;;;;;;5081177;28;20094;-76
2022/06/15 00:57:39;;;;;;;10.43;5.10;;;11.40;99.90;;;;;;5081693;28;20317;-76
2022/06/15 01:00:07;;;;;;;14.17;6.50;;;11.40;99.90;;;;;;5069656;28;20130;-76
2022/06/15 01:02:36;;;;;;;10.40;6.03;;;11.30;99.90;;;;;;5104941;28;20160;-76
2022/06/15 01:05:05;;;;;;;8.23;5.40;;;11.30;99.90;;;;;;5103707;28;20047;-76
2022/06/15 01:07:56;;;;;;;7.77;4.57;;;11.30;99.90;;;;;;5083138;28;20036;-76
2022/06/15 01:10:39;;;;;;;8.50;5.17;;;11.30;99.90;;;;;;5064929;28;20402;-77
2022/06/15 01:13:18;;;;;;;8.60;4.77;;;11.30;99.90;;;;;;5084598;28;20048;-77
2022/06/15 01:15:55;;;;;;;8.40;4.97;;;11.30;99.90;;;;;;5080932;28;20043;-77
2022/06/15 01:18:31;;;;;;;8.27;5.00;;;11.30;99.90;;;;;;5087603;28;20496;-77
2022/06/15 01:21:06;;;;;;;8.83;4.93;;;11.30;99.90;;;;;;5083528;28;21055;-77
2022/06/15 01:23:55;;;;;;;7.07;4.20;;;11.30;99.90;;;;;;5080652;28;20078;-76
2022/06/15 01:26:43;;;;;;;6.80;4.33;;;11.30;99.90;;;;;;5107415;28;20443;-77
2022/06/15 01:29:31;;;;;;;9.60;4.63;;;11.20;99.90;;;;;;5086097;28;20047;-77
2022/06/15 01:32:06;;;;;;;8.67;4.83;;;11.20;99.90;;;;;;5088413;28;20031;-77
2022/06/15 01:34:41;;;;;;;9.17;5.10;;;11.20;99.90;;;;;;5079167;28;20043;-77
2022/06/15 01:37:15;;;;;;;12.00;5.30;;;11.10;99.90;;;;;;5087301;28;20055;-77
2022/06/15 01:39:49;;;;;;;6.93;4.87;;;11.10;99.90;;;;;;5060952;28;20042;-76
2022/06/15 01:42:21;;;;;;;6.80;4.47;;;11.10;99.90;;;;;;5105343;28;20044;-76
2022/06/15 01:44:51;;;;;;;7.13;5.03;;;11.10;99.90;;;;;;5063609;28;20043;-76
2022/06/15 01:47:21;;;;;;;11.37;5.83;;;11.10;99.90;;;;;;5086425;28;20051;-76
2022/06/15 01:49:51;;;;;;;9.60;5.10;;;11.00;99.90;;;;;;5069028;28;20113;-76
2022/06/15 01:52:22;;;;;;;15.50;6.27;;;11.00;99.90;;;;;;5060952;28;20051;-76
2022/06/15 01:54:52;;;;;;;10.23;5.80;;;11.00;99.90;;;;;;5086015;28;20126;-76
2022/06/15 01:57:20;;;;;;;8.77;5.50;;;11.00;99.90;;;;;;5081074;28;20731;-76
2022/06/15 01:59:52;;;;;;;7.87;5.87;;;11.00;99.90;;;;;;5087656;28;20120;-76
2022/06/15 02:02:25;;;;;;;13.73;5.97;;;11.00;99.90;;;;;;5086789;28;20517;-77
2022/06/15 02:04:59;;;;;;;7.53;5.37;;;11.00;99.90;;;;;;5100222;28;20035;-76
2022/06/15 02:07:31;;;;;;;8.10;5.67;;;10.90;99.90;;;;;;5070824;28;20044;-76
2022/06/15 02:10:02;;;;;;;11.53;5.63;;;10.90;99.90;;;;;;5078498;28;20405;-76
2022/06/15 02:12:33;;;;;;;8.33;5.60;;;10.90;99.90;;;;;;5070922;28;20478;-76
2022/06/15 02:15:02;;;;;;;7.87;5.53;;;10.90;99.90;;;;;;5091616;28;20047;-76
2022/06/15 02:17:31;;;;;;;9.10;6.23;;;10.90;99.90;;;;;;5070581;28;20035;-76
2022/06/15 02:20:02;;;;;;;9.20;5.53;;;10.90;99.90;;;;;;5079368;28;20067;-76
2022/06/15 02:22:31;;;;;;;8.57;5.83;;;10.90;99.90;;;;;;5080255;28;20084;-76
2022/06/15 02:25:01;;;;;;;9.40;6.47;;;10.80;99.90;;;;;;5082381;28;20043;-76
2022/06/15 02:27:29;;;;;;;10.93;6.87;;;10.80;99.90;;;;;;5076806;28;20051;-76
2022/06/15 02:29:59;;;;;;;9.47;5.67;;;10.80;99.90;;;;;;5061945;28;20118;-75
2022/06/15 02:32:25;;;;;;;12.77;7.17;;;10.80;99.90;;;;;;5088803;28;20054;-75
2022/06/15 02:34:52;;;;;;;11.73;6.87;;;10.80;99.90;;;;;;5060963;28;20032;-75
2022/06/15 02:37:18;;;;;;;12.83;7.10;;;10.70;99.90;;;;;;5072374;28;20043;-76
2022/06/15 02:39:44;;;;;;;12.23;7.70;;;10.80;99.90;;;;;;5078307;28;20043;-76
2022/06/15 02:42:30;;;;;;;10.10;6.83;;;10.80;99.90;;;;;;5078956;28;21429;-76
2022/06/15 02:45:02;;;;;;;12.97;8.00;;;10.80;99.90;;;;;;5063471;28;20035;-75
2022/06/15 02:47:34;;;;;;;9.63;6.33;;;10.80;99.90;;;;;;5086037;28;20509;-75
2022/06/15 02:50:03;;;;;;;11.83;7.83;;;10.80;99.90;;;;;;5083507;28;20122;-75
2022/06/15 02:52:34;;;;;;;14.00;8.00;;;10.70;99.90;;;;;;5074077;28;20082;-75
2022/06/15 02:55:04;;;;;;;15.00;8.40;;;10.80;99.90;;;;;;5076914;28;20047;-75
2022/06/15 02:57:30;;;;;;;12.40;6.90;;;10.70;99.90;;;;;;5081991;28;20124;-75
2022/06/15 02:59:56;;;;;;;12.57;7.50;;;10.70;99.90;;;;;;5077091;28;20046;-75
2022/06/15 03:02:27;;;;;;;11.10;7.20;;;10.70;99.90;;;;;;5079040;28;20689;-75
2022/06/15 03:04:54;;;;;;;9.70;6.70;;;10.70;99.90;;;;;;5068185;28;20478;-75
2022/06/15 03:07:22;;;;;;;9.00;6.40;;;10.70;99.90;;;;;;5082766;28;20130;-75
2022/06/15 03:09:49;;;;;;;7.70;5.40;;;10.70;99.90;;;;;;5057734;28;20063;-75
2022/06/15 03:12:19;;;;;;;12.60;6.87;;;10.70;99.90;;;;;;5084607;28;20031;-75
2022/06/15 03:14:45;;;;;;;11.27;7.60;;;10.70;99.90;;;;;;5062357;28;20077;-75
2022/06/15 03:17:15;;;;;;;10.70;6.87;;;10.70;99.90;;;;;;5075453;28;20106;-75
2022/06/15 03:19:48;;;;;;;12.50;7.05;;;10.70;99.90;;;;;;5098417;28;20040;-75
2022/06/15 03:22:14;;;;;;;13.10;7.57;;;10.70;99.90;;;;;;5080869;28;20032;-75
2022/06/15 03:24:46;;;;;;;18.30;8.53;;;10.70;99.90;;;;;;5081002;28;20427;-75
2022/06/15 03:27:13;;;;;;;13.93;7.47;;;10.70;99.90;;;;;;5080858;28;20117;-75
2022/06/15 03:29:42;;;;;;;7.63;5.83;;;10.70;99.90;;;;;;5085284;28;20066;-75
2022/06/15 03:32:14;;;;;;;9.83;6.10;;;10.70;99.90;;;;;;5069219;28;20512;-75
2022/06/15 03:34:54;;;;;;;15.15;7.85;;;10.60;99.90;;;;;;5073844;28;20032;-75
2022/06/15 03:37:21;;;;;;;10.07;6.50;;;10.70;99.90;;;;;;5091767;28;20509;-75
2022/06/15 03:39:50;;;;;;;12.27;8.13;;;10.70;99.90;;;;;;5083896;28;20066;-75
2022/06/15 03:42:19;;;;;;;8.83;6.47;;;10.70;99.90;;;;;;5108374;28;20044;-75
2022/06/15 03:44:46;;;;;;;12.77;7.03;;;10.70;99.90;;;;;;5084364;28;20150;-75
2022/06/15 03:47:17;;;;;;;10.40;7.20;;;10.70;99.90;;;;;;5087387;28;20052;-75
2022/06/15 03:49:43;;;;;;;11.10;7.60;;;10.70;99.90;;;;;;5103698;27;20115;-75
2022/06/15 03:52:10;;;;;;;13.30;7.93;;;10.70;99.90;;;;;;5083718;28;20058;-75
2022/06/15 03:54:36;;;;;;;11.27;7.47;;;10.70;99.90;;;;;;5088805;28;20038;-75
2022/06/15 03:57:06;;;;;;;15.03;8.83;;;10.70;99.90;;;;;;5070995;28;20100;-75
2022/06/15 03:59:35;;;;;;;11.37;7.97;;;10.70;99.90;;;;;;5086340;28;20057;-75
2022/06/15 04:02:14;;;;;;;8.33;5.67;;;10.70;99.90;;;;;;5068852;28;20081;-75
2022/06/15 04:04:42;;;;;;;10.77;6.17;;;10.80;99.90;;;;;;5091568;28;20028;-75
2022/06/15 04:09:55;;;;;;;7.67;6.20;;;10.80;99.90;;;;;;5104105;28;20035;-75
2022/06/15 04:12:22;;;;;;;11.47;8.53;;;10.90;99.90;;;;;;5089251;28;20244;-75
2022/06/15 04:14:48;;;;;;;9.53;5.77;;;10.90;99.90;;;;;;5063561;28;20047;-75
2022/06/15 04:17:32;;;;;;;8.50;5.97;;;10.90;99.90;;;;;;5075265;28;20040;-75
2022/06/15 04:23:01;;;;;;;11.23;7.13;;;11.00;99.90;;;;;;5090034;28;20048;-75
2022/06/15 04:25:28;;;;;;;14.30;7.23;;;10.90;99.90;;;;;;5081978;28;20101;-75
2022/06/15 04:27:55;;;;;;;13.50;8.63;;;11.00;99.90;;;;;;5091129;28;20084;-75
2022/06/15 04:30:21;;;;;;;17.83;9.13;;;11.00;99.90;;;;;;5071355;28;20067;-75
2022/06/15 04:32:52;;;;;;;16.00;9.07;;;11.10;99.90;;;;;;5084884;28;20504;-75
2022/06/15 04:35:20;;;;;;;10.87;8.17;;;11.10;99.90;;;;;;5086744;28;20127;-75
2022/06/15 04:37:47;;;;;;;10.87;8.57;;;11.20;99.90;;;;;;5063342;28;20059;-75
2022/06/15 04:40:21;;;;;;;12.10;8.10;;;11.20;99.90;;;;;;5079252;28;20048;-75
2022/06/15 04:42:47;;;;;;;14.37;9.30;;;11.30;99.90;;;;;;5066725;28;20051;-75
2022/06/15 04:45:16;;;;;;;12.90;8.03;;;11.30;99.90;;;;;;5073616;28;20118;-75
2022/06/15 04:47:56;;;;;;;16.77;10.47;;;11.40;99.90;;;;;;5084987;28;20050;-76
2022/06/15 04:50:24;;;;;;;17.07;10.10;;;11.50;99.90;;;;;;5060383;28;20052;-75
2022/06/15 04:52:51;;;;;;;16.33;8.70;;;11.60;99.90;;;;;;5082903;28;20214;-75
2022/06/15 04:55:20;;;;;;;13.17;8.63;;;11.60;99.90;;;;;;5065081;28;20143;-75
2022/06/15 04:57:48;;;;;;;17.33;10.10;;;11.60;99.90;;;;;;5086774;28;20138;-76
2022/06/15 05:00:17;;;;;;;16.10;9.67;;;11.70;99.90;;;;;;5087549;28;20066;-75
2022/06/15 05:02:45;;;;;;;15.97;9.63;;;11.80;99.90;;;;;;5080393;28;20118;-75
2022/06/15 05:05:14;;;;;;;16.10;9.67;;;11.80;99.90;;;;;;5088869;28;20038;-75
2022/06/15 05:07:41;;;;;;;15.73;9.40;;;12.00;99.90;;;;;;5079870;28;20032;-75
2022/06/15 05:10:12;;;;;;;16.07;9.90;;;12.10;99.90;;;;;;5083326;28;20043;-76
2022/06/15 05:12:39;;;;;;;17.53;10.97;;;12.20;99.90;;;;;;5078466;28;20055;-76
2022/06/15 05:15:06;;;;;;;14.40;7.67;;;12.40;99.90;;;;;;5079330;28;20498;-75
2022/06/15 05:17:35;;;;;;;14.53;9.17;;;12.40;99.90;;;;;;5081001;28;20066;-76
2022/06/15 05:20:01;;;;;;;13.27;9.67;;;12.50;99.90;;;;;;5091771;28;20612;-76
2022/06/15 05:22:32;;;;;;;13.03;9.03;;;12.60;99.90;;;;;;5085724;28;20042;-78
2022/06/15 05:25:02;;;;;;;17.87;9.30;;;12.70;99.90;;;;;;5078034;28;20088;-76
2022/06/15 05:27:27;;;;;;;13.77;8.13;;;12.80;99.90;;;;;;5088487;28;20040;-77
2022/06/15 05:29:55;;;;;;;14.70;8.10;;;12.90;99.90;;;;;;5088485;28;20040;-76
2022/06/15 05:32:21;;;;;;;12.60;8.20;;;13.10;99.90;;;;;;5056098;28;20507;-75
2022/06/15 05:34:48;;;;;;;11.70;8.27;;;13.30;99.90;;;;;;5073904;28;20040;-78
2022/06/15 05:37:16;;;;;;;13.23;8.13;;;13.60;99.90;;;;;;5065813;28;20048;-76
2022/06/15 05:39:42;;;;;;;12.97;7.63;;;13.70;99.90;;;;;;5062245;28;20054;-75
2022/06/15 05:42:09;;;;;;;18.83;8.60;;;13.80;99.90;;;;;;5082297;28;20054;-76
2022/06/15 05:44:51;;;;;;;14.53;8.20;;;13.90;99.90;;;;;;5082432;28;20044;-76
2022/06/15 05:47:17;;;;;;;10.03;7.47;;;13.90;99.90;;;;;;5081031;28;20451;-76
2022/06/15 05:50:16;;;;;;;9.17;6.73;;;14.10;99.90;;;;;;5069895;28;20078;-76
2022/06/15 05:52:49;;;;;;;12.53;7.30;;;14.20;99.90;;;;;;5088492;28;20048;-77
2022/06/15 05:55:15;;;;;;;13.17;7.93;;;14.30;99.90;;;;;;5072838;28;20040;-76
2022/06/15 05:57:41;;;;;;;15.63;6.63;;;14.40;99.90;;;;;;5106441;28;20039;-76
2022/06/15 06:00:09;;;;;;;8.80;5.90;;;14.50;99.90;;;;;;5089800;28;20035;-77
2022/06/15 06:02:42;;;;;;;13.33;6.73;;;14.60;99.90;;;;;;5104516;28;20043;-77
2022/06/15 06:05:09;;;;;;;13.70;6.87;;;15.00;99.90;;;;;;5106792;28;20046;-76
2022/06/15 06:07:36;;;;;;;10.20;5.73;;;15.20;99.90;;;;;;5102964;28;20040;-75
2022/06/15 06:10:02;;;;;;;10.37;5.90;;;15.30;99.90;;;;;;5102643;28;20078;-75
2022/06/15 06:12:28;;;;;;;12.10;5.63;;;15.30;99.90;;;;;;5104640;28;20040;-75
2022/06/15 06:14:54;;;;;;;13.40;5.50;;;15.30;99.90;;;;;;5105760;28;20108;-77
2022/06/15 06:17:20;;;;;;;12.07;5.20;;;15.30;99.90;;;;;;5081239;28;20513;-75
2022/06/15 06:19:46;;;;;;;10.50;5.33;;;15.30;99.90;;;;;;5081851;28;20044;-77
2022/06/15 06:22:12;;;;;;;10.87;5.20;;;15.30;99.90;;;;;;5088683;28;20519;-77
2022/06/15 06:24:39;;;;;;;9.67;5.53;;;15.30;99.90;;;;;;5085253;28;20039;-77
2022/06/15 06:27:06;;;;;;;9.67;5.07;;;15.30;99.90;;;;;;5103726;28;20644;-75
2022/06/15 06:29:33;;;;;;;8.63;4.40;;;15.30;99.90;;;;;;5096583;27;20489;-76
2022/06/15 06:32:00;;;;;;;8.50;4.17;;;15.40;99.90;;;;;;5087052;28;20071;-77
2022/06/15 06:34:29;;;;;;;8.03;3.97;;;15.40;99.90;;;;;;5106199;28;20051;-77
2022/06/15 06:36:56;;;;;;;10.77;4.37;;;15.40;99.90;;;;;;5104012;28;20039;-77
2022/06/15 06:39:25;;;;;;;7.63;3.87;;;15.50;99.90;;;;;;5072157;28;20048;-75
2022/06/15 06:41:52;;;;;;;8.03;3.33;;;15.60;99.90;;;;;;5106418;28;20031;-76
2022/06/15 06:44:18;;;;;;;10.13;3.67;;;15.70;99.90;;;;;;5083889;28;20067;-78
2022/06/15 06:46:46;;;;;;;10.67;3.10;;;15.80;99.90;;;;;;5063180;28;20042;-77
2022/06/15 06:49:12;;;;;;;11.53;2.93;;;15.80;99.90;;;;;;5083376;28;20044;-76
2022/06/15 06:51:39;;;;;;;8.73;3.53;;;15.90;99.90;;;;;;5104181;28;20039;-76
2022/06/15 06:54:07;;;;;;;8.87;2.90;;;15.90;99.90;;;;;;5086856;28;20448;-76
2022/06/15 06:56:34;;;;;;;11.80;3.10;;;16.00;99.90;;;;;;5069607;28;20032;-77
2022/06/15 06:59:02;;;;;;;7.47;3.00;;;16.10;99.90;;;;;;5088231;28;20047;-76
2022/06/15 07:01:27;;;;;;;5.80;2.70;;;16.10;99.90;;;;;;5103914;28;20425;-76
2022/06/15 07:03:53;;;;;;;7.47;2.80;;;16.20;99.90;;;;;;5102620;28;20043;-78
2022/06/15 07:06:19;;;;;;;6.43;2.50;;;16.40;99.90;;;;;;5100744;28;20104;-77
2022/06/15 07:08:45;;;;;;;6.23;2.47;;;16.50;99.90;;;;;;5075846;28;20089;-77
2022/06/15 07:11:13;;;;;;;8.70;2.53;;;16.70;99.90;;;;;;5106124;28;20044;-77
2022/06/15 07:13:39;;;;;;;8.10;2.50;;;16.90;99.90;;;;;;5064788;28;20063;-77
2022/06/15 07:16:08;;;;;;;9.13;2.77;;;17.10;99.90;;;;;;5085410;28;20039;-77
2022/06/15 07:18:34;;;;;;;10.00;2.30;;;17.10;99.90;;;;;;5087251;28;20039;-77
2022/06/15 07:21:01;;;;;;;9.03;2.57;;;17.20;99.90;;;;;;5079956;28;20109;-76
2022/06/15 07:23:27;;;;;;;8.07;2.27;;;17.20;99.90;;;;;;5080088;28;20520;-76
2022/06/15 07:25:53;;;;;;;8.33;2.50;;;17.20;99.90;;;;;;5086484;28;20028;-77
2022/06/15 07:28:18;;;;;;;6.17;2.30;;;17.20;99.90;;;;;;5080932;28;20052;-77
2022/06/15 07:30:44;;;;;;;8.53;2.30;;;17.20;99.90;;;;;;5090727;28;20042;-77
2022/06/15 07:33:11;;;;;;;9.03;2.43;;;17.20;99.90;;;;;;5108055;28;20051;-77
2022/06/15 07:35:38;;;;;;;8.70;2.30;;;17.30;99.90;;;;;;5103686;28;20429;-77
2022/06/15 07:38:05;;;;;;;7.60;2.20;;;17.30;99.90;;;;;;5097441;28;20048;-77
2022/06/15 07:40:31;;;;;;;7.13;2.27;;;17.40;99.90;;;;;;5080109;28;20048;-78
2022/06/15 07:42:58;;;;;;;8.13;2.00;;;17.40;99.90;;;;;;5081131;28;20052;-77
2022/06/15 07:45:25;;;;;;;10.43;2.40;;;17.40;99.90;;;;;;5084545;28;20081;-78
2022/06/15 07:50:36;;;;;;;;;;;17.50;99.90;;;;;;5092175;28;20085;-76
2022/06/15 07:53:04;;;;;;;7.83;2.00;;;17.60;99.90;;;;;;5108459;28;19927;-75
2022/06/15 07:55:32;;;;;;;5.97;2.20;;;17.60;99.90;;;;;;5084353;28;20104;-76
2022/06/15 07:57:59;;;;;;;6.73;2.43;;;17.70;99.90;;;;;;5108067;28;20052;-75
2022/06/15 08:00:25;;;;;;;5.17;2.10;;;17.70;99.90;;;;;;5108772;28;20039;-76
2022/06/15 08:02:51;;;;;;;10.57;2.50;;;17.70;99.90;;;;;;5105960;28;20058;-78
2022/06/15 08:05:17;;;;;;;6.67;2.10;;;17.80;99.90;;;;;;5080895;28;20078;-78
2022/06/15 08:07:46;;;;;;;6.47;2.40;;;17.80;99.90;;;;;;5103419;28;20051;-78
2022/06/15 08:10:13;;;;;;;4.13;1.80;;;18.00;99.90;;;;;;5089617;28;20137;-79
2022/06/15 08:12:40;;;;;;;5.63;2.10;;;18.10;99.90;;;;;;5091258;28;20036;-76
2022/06/15 08:15:06;;;;;;;6.13;2.37;;;18.20;99.90;;;;;;5105037;28;20071;-76
2022/06/15 08:17:36;;;;;;;11.63;2.50;;;18.20;99.90;;;;;;5107682;28;20044;-77
2022/06/15 08:20:08;;;;;;;8.53;2.70;;;18.40;99.90;;;;;;5088089;28;20040;-76
2022/06/15 08:22:36;;;;;;;6.70;2.20;;;18.50;99.90;;;;;;5105141;28;20416;-76
2022/06/15 08:25:04;;;;;;;6.97;2.17;;;18.70;99.90;;;;;;5098522;27;20126;-76
2022/06/15 08:27:30;;;;;;;6.87;2.10;;;18.80;99.90;;;;;;5116681;27;20062;-78
2022/06/15 08:29:56;;;;;;;6.57;1.90;;;18.80;99.90;;;;;;5110277;28;20032;-75
2022/06/15 08:32:22;;;;;;;5.93;1.80;;;18.90;99.90;;;;;;5109622;28;20051;-78
2022/06/15 08:34:49;;;;;;;5.83;1.73;;;18.90;99.90;;;;;;5086602;28;20081;-77
2022/06/15 08:37:18;;;;;;;7.63;1.90;;;19.10;99.90;;;;;;5094438;28;20563;-78
2022/06/15 08:39:44;;;;;;;6.03;1.80;;;19.30;99.90;;;;;;5096842;28;20088;-78
2022/06/15 08:42:21;;;;;;;6.00;1.77;;;19.50;99.90;;;;;;5116993;28;20733;-78
2022/06/15 08:44:56;;;;;;;4.90;1.47;;;19.60;99.90;;;;;;5062593;28;20043;-76
2022/06/15 08:47:38;;;;;;;3.20;1.40;;;19.80;99.90;;;;;;5107109;27;20054;-77
2022/06/15 08:50:13;;;;;;;5.43;1.40;;;19.90;99.90;;;;;;5108729;28;20047;-76
2022/06/15 08:52:44;;;;;;;5.67;1.53;;;20.00;99.90;;;;;;5098166;28;20044;-80
2022/06/15 08:55:17;;;;;;;5.10;1.60;;;20.00;98.90;;;;;;5094608;28;20710;-79
2022/06/15 08:57:49;;;;;;;5.22;1.60;;;20.10;99.90;;;;;;5102925;28;20486;-80
2022/06/15 09:00:19;;;;;;;3.97;1.50;;;20.20;99.90;;;;;;5106250;28;20043;-77
2022/06/15 09:02:53;;;;;;;4.47;1.57;;;20.40;99.10;;;;;;5093358;28;20305;-79
2022/06/15 09:05:31;;;;;;;5.27;1.67;;;20.50;99.50;;;;;;5086584;28;20088;-77
2022/06/15 09:08:13;;;;;;;3.83;1.83;;;20.50;99.90;;;;;;5083432;28;20047;-79
2022/06/15 09:10:48;;;;;;;5.40;1.70;;;20.40;99.90;;;;;;5097894;28;20039;-77
2022/06/15 09:13:35;;;;;;;6.37;1.60;;;20.50;99.90;;;;;;5107304;28;20044;-77
2022/06/15 09:16:09;;;;;;;5.73;1.70;;;20.60;99.60;;;;;;5103849;28;20106;-77
2022/06/15 09:18:39;;;;;;;6.40;1.87;;;20.70;99.40;;;;;;5084434;28;20051;-77
2022/06/15 09:21:10;;;;;;;8.43;1.90;;;20.70;99.20;;;;;;5107522;27;20039;-77
2022/06/15 09:23:41;;;;;;;6.47;2.00;;;20.70;98.50;;;;;;5101622;28;20047;-76
2022/06/15 09:26:11;;;;;;;8.80;2.17;;;20.60;98.90;;;;;;5105173;28;20036;-76
2022/06/15 09:28:45;;;;;;;6.67;2.13;;;20.60;99.70;;;;;;5113415;28;20040;-77
2022/06/15 09:31:13;;;;;;;;;;;20.80;97.50;;;;;;5100194;28;20119;-79
2022/06/15 09:33:43;;;;;;;5.83;1.70;;;21.00;97.40;;;;;;5095242;28;19921;-79
2022/06/15 09:36:14;;;;;;;4.07;1.60;;;21.10;96.90;;;;;;5110020;28;20111;-78
2022/06/15 09:38:41;;;;;;;3.73;1.77;;;21.30;95.70;;;;;;5077869;28;20130;-78
2022/06/15 09:41:12;;;;;;;6.60;1.90;;;21.40;97.20;;;;;;5095019;28;20043;-76
2022/06/15 09:43:47;;;;;;;5.70;1.60;;;21.50;98.30;;;;;;5095013;28;20064;-79
2022/06/15 09:46:19;;;;;;;4.23;1.63;;;21.30;98.40;;;;;;5115756;27;20040;-76
2022/06/15 09:49:07;;;;;;;5.50;1.83;;;21.10;98.20;;;;;;5092897;28;20047;-77
2022/06/15 09:51:40;;;;;;;6.53;1.67;;;21.00;98.20;;;;;;5093729;28;20039;-76
2022/06/15 09:54:13;;;;;;;7.37;2.30;;;21.00;98.60;;;;;;5093403;28;20120;-78
2022/06/15 09:56:40;;;;;;;5.05;2.10;;;21.30;98.50;;;;;;5086391;28;20297;-77
2022/06/15 09:59:12;;;;;;;8.40;2.10;;;21.60;97.90;;;;;;5078833;28;20123;-77
2022/06/15 10:01:41;;;;;;;5.27;1.87;;;21.80;97.60;;;;;;5087857;28;20039;-77
2022/06/15 10:04:15;;;;;;;4.80;1.60;;;22.10;98.50;;;;;;5108226;28;20043;-78
2022/06/15 10:06:45;;;;;;;5.27;1.83;;;22.10;97.40;;;;;;5101232;28;20039;-76
2022/06/15 10:09:15;;;;;;;7.63;2.20;;;22.40;97.20;;;;;;5103045;28;20051;-77
2022/06/15 10:11:45;;;;;;;8.20;2.07;;;22.80;96.70;;;;;;5085991;28;20339;-78
2022/06/15 10:14:23;;;;;;;4.60;1.57;;;23.20;95.80;;;;;;5096118;28;20050;-76
2022/06/15 10:16:54;;;;;;;6.70;2.20;;;23.60;96.40;;;;;;5094811;28;20048;-76
2022/06/15 10:19:22;;;;;;;6.90;1.80;;;23.60;93.60;;;;;;5080806;28;20047;-77
2022/06/15 10:21:53;;;;;;;6.00;1.87;;;23.20;93.50;;;;;;5089678;28;20039;-77
2022/06/15 10:24:24;;;;;;;4.90;1.77;;;23.10;94.00;;;;;;5086070;28;20083;-76
2022/06/15 10:26:53;;;;;;;7.13;2.13;;;23.40;92.80;;;;;;5094710;28;20084;-78
2022/06/15 10:29:28;;;;;;;6.13;2.10;;;23.60;92.50;;;;;;5092682;28;20066;-76
2022/06/15 10:32:02;;;;;;;5.65;1.70;;;23.70;91.10;;;;;;5105140;28;20044;-76
2022/06/15 10:34:29;;;;;;;6.35;1.80;;;23.50;91.10;;;;;;5092022;28;20705;-76
2022/06/15 10:36:58;;;;;;;5.47;1.90;;;23.30;90.70;;;;;;5103024;28;20028;-78
2022/06/15 10:39:27;;;;;;;6.03;1.98;;;23.00;90.20;;;;;;5101084;28;20058;-76
2022/06/15 10:41:59;;;;;;;6.72;2.03;;;22.60;91.30;;;;;;5104463;28;20054;-77
2022/06/15 10:44:31;;;;;;;8.50;1.80;;;22.20;92.30;;;;;;5105991;28;20051;-77
2022/06/15 10:47:00;;;;;;;6.60;1.95;;;22.20;93.90;;;;;;5107108;28;20035;-76
2022/06/15 10:49:30;;;;;;;4.82;2.05;;;22.60;93.90;;;;;;5080164;28;20047;-76
2022/06/15 10:51:56;;;;;;;4.45;1.80;;;23.10;94.30;;;;;;5107977;28;20035;-78
2022/06/15 10:54:30;;;;;;;6.47;2.00;;;23.70;94.90;;;;;;5091031;28;20561;-77
2022/06/15 11:02:51;;;;;;;4.30;1.80;;;24.80;91.20;;;;;;5100778;28;20059;-76
2022/06/15 11:05:20;;;;;;;3.80;1.75;;;24.80;88.20;;;;;;5095827;28;20672;-76
2022/06/15 11:07:50;;;;;;;6.20;1.80;;;24.90;90.20;;;;;;5097496;28;20040;-77
2022/06/15 11:10:27;;;;;;;4.20;1.50;;;25.20;89.60;;;;;;5099187;28;20044;-76
2022/06/15 11:12:56;;;;;;;3.75;1.67;;;25.30;84.60;;;;;;5087268;28;20137;-77
2022/06/15 11:18:28;;;;;;;7.28;1.83;;;25.70;89.40;;;;;;5095300;28;20036;-78
2022/06/15 11:21:00;;;;;;;5.90;1.75;;;25.90;88.80;;;;;;5091655;28;20090;-76
2022/06/15 11:23:34;;;;;;;4.05;1.70;;;26.10;85.20;;;;;;5091947;28;20058;-77
2022/06/15 11:26:51;;;;;;;10.05;1.65;;;26.10;85.80;;;;;;5103625;28;20118;-79
2022/06/15 11:28:53;;;;;;;6.40;1.88;;;26.30;82.60;;;;;;5093872;28;20048;-76
2022/06/15 11:31:25;;;;;;;6.10;1.60;;;26.30;84.60;;;;;;5094648;28;20069;-76
2022/06/15 11:33:58;;;;;;;7.50;2.00;;;26.60;83.80;;;;;;5098807;28;20502;-78
2022/06/15 11:36:30;;;;;;;7.72;1.98;;;26.90;84.70;;;;;;5100622;28;20121;-77
2022/06/15 11:39:00;;;;;;;4.30;1.85;;;27.10;83.00;;;;;;5082239;28;20497;-76
2022/06/15 11:41:32;;;;;;;6.38;1.77;;;27.20;78.60;;;;;;5107203;28;20047;-78
2022/06/15 11:44:00;;;;;;;3.92;1.27;;;27.10;75.90;;;;;;5103608;28;20046;-75
2022/06/15 11:46:44;;;;;;;3.50;1.65;;;26.80;77.30;;;;;;5084595;28;20044;-77
2022/06/15 11:49:23;;;;;;;3.10;1.42;;;26.30;77.50;;;;;;5077980;28;21319;-75
2022/06/15 11:52:00;;;;;;;8.65;1.67;;;25.90;81.20;;;;;;5089246;28;20507;-74
2022/06/15 11:54:41;;;;;;;5.10;1.55;;;25.90;83.20;;;;;;5105890;28;20134;-76
2022/06/15 11:57:20;;;;;;;2.95;1.27;;;25.90;81.30;;;;;;5100716;28;20035;-75
2022/06/15 11:59:54;;;;;;;5.05;1.60;;;25.60;81.30;;;;;;5086924;28;20043;-75
2022/06/15 12:02:35;;;;;;;4.68;1.58;;;25.50;83.50;;;;;;5086501;28;20052;-75
2022/06/15 12:05:21;;;;;;;7.53;1.73;;;25.70;84.90;;;;;;5097759;28;20105;-76
2022/06/15 12:07:59;;;;;;;5.88;2.20;;;26.20;85.00;;;;;;5104122;28;20402;-78
2022/06/15 12:10:37;;;;;;;6.13;2.25;;;26.50;79.70;;;;;;5089018;28;20622;-77
2022/06/15 12:13:13;;;;;;;4.05;1.60;;;26.60;78.00;;;;;;5107210;28;20047;-77
2022/06/15 12:15:45;;;;;;;4.75;2.40;;;26.60;74.30;;;;;;5080808;28;20079;-76
2022/06/15 12:18:24;;;;;;;5.18;1.80;;;26.50;77.50;;;;;;5071660;28;20051;-77
2022/06/15 12:20:58;;;;;;;5.47;1.90;;;26.80;81.70;;;;;;5082357;28;20521;-78
2022/06/15 12:23:42;;;;;;;3.83;1.90;;;27.10;82.30;;;;;;5084637;28;20758;-78
2022/06/15 12:26:19;;;;;;;5.05;1.70;;;27.10;80.30;;;;;;5072731;28;20035;-76
2022/06/15 12:28:50;;;;;;;3.58;1.83;;;26.80;75.10;;;;;;5105660;28;20044;-77
2022/06/15 12:31:23;;;;;;;5.30;1.30;;;26.60;77.60;;;;;;5097977;28;20135;-77
2022/06/15 12:33:56;;;;;;;4.63;1.70;;;26.50;74.10;;;;;;5095770;28;20131;-77
2022/06/15 12:36:27;;;;;;;4.40;1.52;;;26.60;76.10;;;;;;5066228;28;20278;-77
2022/06/15 12:39:01;;;;;;;7.68;2.30;;;26.20;77.40;;;;;;5106341;28;20101;-77
2022/06/15 12:44:19;;;;;;;3.90;1.60;;;26.40;81.00;;;;;;5082880;28;20152;-77
2022/06/15 12:46:47;;;;;;;5.30;1.40;;;26.60;81.40;;;;;;5087352;28;20044;-78
2022/06/15 12:49:25;;;;;;;10.30;1.83;;;26.60;79.30;;;;;;5068466;28;20564;-77
2022/06/15 12:51:59;;;;;;;4.45;1.77;;;26.50;78.30;;;;;;5105342;28;20070;-75
2022/06/15 12:54:35;;;;;;;5.20;1.58;;;26.40;75.90;;;;;;5083561;28;20043;-77
2022/06/15 12:57:06;;;;;;;4.88;1.67;;;26.70;78.40;;;;;;5111175;28;20043;-76
2022/06/15 12:59:43;;;;;;;4.07;1.55;;;26.90;72.80;;;;;;5067165;28;20032;-78
2022/06/15 13:02:16;;;;;;;5.55;1.45;;;27.00;76.80;;;;;;5105218;28;20059;-79
2022/06/15 13:04:55;;;;;;;5.50;1.77;;;27.20;74.00;;;;;;5090155;28;27621;-76
2022/06/15 13:07:25;;;;;;;4.63;1.30;;;27.20;74.80;;;;;;5092533;28;20439;-76
2022/06/15 13:10:21;;;;;;;4.38;1.65;;;27.30;74.60;;;;;;5090483;28;20097;-77
2022/06/15 13:12:50;;;;;;;6.28;1.88;;;27.30;74.50;;;;;;5109752;28;20055;-76
2022/06/15 13:15:21;;;;;;;2.80;1.25;;;27.20;74.80;;;;;;5095168;28;20047;-77
2022/06/15 13:18:09;;;;;;;5.07;1.42;;;27.10;70.70;;;;;;5088986;28;20051;-77
2022/06/15 13:21:02;;;;;;;3.08;1.10;;;26.90;72.30;;;;;;5101440;28;20511;-75